Current | Forecast
Updated: 2:14 PM JST on February 24, 2018
Observed at Akita Airport, Japan
Temperature 30°F
Windchill 18°F
Humidity 86%
Dew Point 27°F
Wind WNW at 17 mph
Pressure 29.95 in (Falling)
Conditions Light Snow Showers
Visibility 1.9 miles
UV 2 out of 16
Clouds (FEW) : 300 ft
Scattered Clouds (SCT) : 600 ft
Mostly Cloudy (BKN) : 800 ft
Yesterday's Maximum 34°F
Yesterday's Minimum 18°F approx.
Yesterday's Heating Degree Days 39 approx.
Sunrise6:21 AM JST
Sunset5:25 PM JST
Moon Rise11:19 AM JST
Moon Set12:58 AM JST
Moon PhaseMoon Phase
First Quarter
Raw METARSPECI RJSK 240514Z 30015KT 3000 -SHSN FEW003 SCT006 BKN008 M01/M03 Q1014 RMK 1ST003 3ST006 5ST008 A2996 P/RR


Monday
. High: 80° F.
Tuesday
. High: 78° F.
Wednesday
. High: 66° F.
Thursday
. High: 69° F.
Friday
. High: 66° F.
Saturday
. High: 69° F.
Sunday
. High: 62° F.
Monday
. High: 62° F.

Units: English | Metric

Find the Weather for any City, State or Zipcode, or Country:

U.S. State List | Severe Weather | Tropical Storms | Ski Conditions
United States | Canada | Central America | South America | Asia | Europe | Australia | Africa | Islands

Weather Underground

© Copyright 2018
The Weather Company, LLC